Time;durP1;ratioP1;P1;durP2;ratioP2;P2;SDS_P1;SDS_P2;PMS_P1;PMS_P2;Temp;Humidity;BMP_temperature;BMP_pressure;BME280_temperature;BME280_humidity;BME280_pressure;Samples;Min_cycle;Max_cycle;Signal;HPM_P1;HPM_P2
2020/12/06 00:02:10;;;;;;;;;;;3.10;99.90;;;;;;5016922;28;19952;-89
2020/12/06 00:04:36;;;;;;;;;;;3.10;99.90;;;;;;5016776;28;19955;-88
2020/12/06 00:07:04;;;;;;;;;;;3.10;99.90;;;;;;5016406;28;19963;-89
2020/12/06 00:09:29;;;;;;;;;;;3.10;99.90;;;;;;5016400;28;19921;-90
2020/12/06 00:12:00;;;;;;;;;;;3.10;99.90;;;;;;5016494;28;19959;-90
2020/12/06 00:14:26;;;;;;;;;;;3.10;99.90;;;;;;5016262;28;20276;-89
2020/12/06 00:16:54;;;;;;;;;;;3.10;99.90;;;;;;5016561;28;19946;-89
2020/12/06 00:19:19;;;;;;;;;;;3.10;99.90;;;;;;5016686;28;19909;-89
2020/12/06 00:21:47;;;;;;;;;;;3.10;99.90;;;;;;5016172;28;20428;-90
2020/12/06 00:24:16;;;;;;;;;;;3.10;99.90;;;;;;5016612;28;20008;-89
2020/12/06 00:26:42;;;;;;;;;;;3.10;99.90;;;;;;5016336;28;19909;-90
2020/12/06 00:29:07;;;;;;;;;;;3.10;99.90;;;;;;5016061;28;19913;-89
2020/12/06 00:31:33;;;;;;;;;;;3.10;99.90;;;;;;5016076;28;20233;-89
2020/12/06 00:33:58;;;;;;;;;;;3.10;99.90;;;;;;5016244;28;20262;-89
2020/12/06 00:36:24;;;;;;;;;;;3.10;99.90;;;;;;5016231;28;19917;-89
2020/12/06 00:38:52;;;;;;;;;;;3.10;99.90;;;;;;5016806;28;20372;-89
2020/12/06 00:41:19;;;;;;;;;;;3.10;99.90;;;;;;5017223;28;19913;-89
2020/12/06 00:43:46;;;;;;;;;;;3.10;99.90;;;;;;5017089;28;19909;-90
2020/12/06 00:46:18;;;;;;;;;;;3.10;99.90;;;;;;5034146;28;20419;-89
2020/12/06 00:48:44;;;;;;;;;;;3.10;99.90;;;;;;5016759;28;19916;-90
2020/12/06 00:51:10;;;;;;;;;;;3.10;99.90;;;;;;5016192;28;19909;-89
2020/12/06 00:53:36;;;;;;;;;;;3.10;99.90;;;;;;5016931;28;20422;-89
2020/12/06 00:56:04;;;;;;;;;;;3.10;99.90;;;;;;5016485;28;19921;-89
2020/12/06 00:58:29;;;;;;;;;;;3.10;99.90;;;;;;5015780;28;19913;-88
2020/12/06 01:00:55;;;;;;;;;;;3.10;99.90;;;;;;5015794;28;20276;-89
2020/12/06 01:03:23;;;;;;;;;;;3.10;99.90;;;;;;5014669;28;19913;-89
2020/12/06 01:05:48;;;;;;;;;;;3.10;99.90;;;;;;5014611;28;19909;-88
2020/12/06 01:08:14;;;;;;;;;;;3.10;99.90;;;;;;5014226;28;20024;-88
2020/12/06 01:10:42;;;;;;;;;;;3.10;99.90;;;;;;5014960;28;20108;-88
2020/12/06 01:13:10;;;;;;;;;;;3.10;99.90;;;;;;5014591;28;19917;-89
2020/12/06 01:15:38;;;;;;;;;;;3.10;99.90;;;;;;5013797;28;19925;-89
2020/12/06 01:18:06;;;;;;;;;;;3.10;99.90;;;;;;5014081;28;20008;-89
2020/12/06 01:20:31;;;;;;;;;;;3.10;99.90;;;;;;5014016;28;19954;-89
2020/12/06 01:22:59;;;;;;;;;;;3.10;99.90;;;;;;5014089;28;19913;-88
2020/12/06 01:25:25;;;;;;;;;;;3.00;99.90;;;;;;5014070;28;19916;-88
2020/12/06 01:27:50;;;;;;;;;;;3.00;99.90;;;;;;5014397;28;19909;-87
2020/12/06 01:30:18;;;;;;;;;;;3.10;99.90;;;;;;5014282;28;20070;-89
2020/12/06 01:32:44;;;;;;;;;;;3.00;99.90;;;;;;5014481;28;19909;-88
2020/12/06 01:35:09;;;;;;;;;;;3.10;99.90;;;;;;5014390;28;19956;-89
2020/12/06 01:37:40;;;;;;;;;;;3.10;99.90;;;;;;5014289;28;19909;-89
2020/12/06 01:40:05;;;;;;;;;;;3.00;99.90;;;;;;5014126;28;19916;-89
2020/12/06 01:42:31;;;;;;;;;;;3.00;99.90;;;;;;5014151;28;19976;-88
2020/12/06 01:44:57;;;;;;;;;;;3.00;99.90;;;;;;5014347;28;19909;-88
2020/12/06 01:47:23;;;;;;;;;;;3.00;99.90;;;;;;5014162;28;19917;-89
2020/12/06 01:49:51;;;;;;;;;;;3.00;99.90;;;;;;5014312;28;19913;-89
2020/12/06 01:52:16;;;;;;;;;;;3.00;99.90;;;;;;5014362;28;19909;-89
2020/12/06 01:54:44;;;;;;;;;;;3.00;99.90;;;;;;5013878;28;19909;-88
2020/12/06 01:57:10;;;;;;;;;;;3.00;99.90;;;;;;5014144;28;19909;-88
2020/12/06 01:59:35;;;;;;;;;;;3.00;99.90;;;;;;5016836;28;19963;-89
2020/12/06 02:02:02;;;;;;;;;;;3.00;99.90;;;;;;5017751;28;19916;-90
2020/12/06 02:04:30;;;;;;;;;;;3.00;99.90;;;;;;5017778;28;20078;-89
2020/12/06 02:06:56;;;;;;;;;;;3.00;99.90;;;;;;5017675;28;20279;-89
2020/12/06 02:09:24;;;;;;;;;;;3.00;99.90;;;;;;5014461;28;20004;-88
2020/12/06 02:11:50;;;;;;;;;;;3.00;99.90;;;;;;5014243;28;20368;-89
2020/12/06 02:14:16;;;;;;;;;;;3.00;99.90;;;;;;5014368;28;20009;-89
2020/12/06 02:16:45;;;;;;;;;;;3.00;99.90;;;;;;5014084;28;19917;-89
2020/12/06 02:19:11;;;;;;;;;;;3.00;99.90;;;;;;5014129;28;19928;-89
2020/12/06 02:21:40;;;;;;;;;;;3.00;99.90;;;;;;5014002;28;19952;-87
2020/12/06 02:24:08;;;;;;;;;;;3.00;99.90;;;;;;5014020;28;19917;-90
2020/12/06 02:26:42;;;;;;;;;;;3.00;99.90;;;;;;5013565;28;19909;-90
2020/12/06 02:29:08;;;;;;;;;;;3.00;99.90;;;;;;5014855;28;19913;-88
2020/12/06 02:31:34;;;;;;;;;;;3.00;99.90;;;;;;5013903;28;20012;-88
2020/12/06 02:34:01;;;;;;;;;;;3.00;99.90;;;;;;5013723;28;19957;-89
2020/12/06 02:36:29;;;;;;;;;;;3.00;99.90;;;;;;5013505;28;19921;-88
2020/12/06 02:38:57;;;;;;;;;;;2.90;99.90;;;;;;5013508;28;19909;-88
2020/12/06 02:41:33;;;;;;;;;;;2.90;99.90;;;;;;5013632;28;19910;-88
2020/12/06 02:44:01;;;;;;;;;;;2.90;99.90;;;;;;5013655;28;19917;-89
2020/12/06 02:46:27;;;;;;;;;;;2.90;99.90;;;;;;5013777;28;20057;-88
2020/12/06 02:48:53;;;;;;;;;;;2.90;99.90;;;;;;5013718;28;19936;-89
2020/12/06 02:51:20;;;;;;;;;;;2.90;99.90;;;;;;5013233;28;19961;-89
2020/12/06 02:53:48;;;;;;;;;;;2.90;99.90;;;;;;5013097;28;19909;-87
2020/12/06 02:56:14;;;;;;;;;;;2.80;99.90;;;;;;5013186;28;19957;-88
2020/12/06 02:58:42;;;;;;;;;;;2.80;99.90;;;;;;5013222;28;20496;-89
2020/12/06 03:01:07;;;;;;;;;;;2.70;99.90;;;;;;5013049;28;20364;-88
2020/12/06 03:03:33;;;;;;;;;;;2.80;99.90;;;;;;5013124;28;19949;-89
2020/12/06 03:06:00;;;;;;;;;;;2.70;99.90;;;;;;5012925;28;19953;-88
2020/12/06 03:08:26;;;;;;;;;;;2.80;99.90;;;;;;5012645;28;19922;-88
2020/12/06 03:10:51;;;;;;;;;;;2.70;99.90;;;;;;5013152;28;19972;-88
2020/12/06 03:13:17;;;;;;;;;;;2.70;99.90;;;;;;5013133;28;20420;-89
2020/12/06 03:15:45;;;;;;;;;;;2.70;99.90;;;;;;5012956;28;20033;-90
2020/12/06 03:18:13;;;;;;;;;;;2.70;99.90;;;;;;5013148;28;19959;-88
2020/12/06 03:20:39;;;;;;;;;;;2.70;99.90;;;;;;5012695;28;19996;-89
2020/12/06 03:23:04;;;;;;;;;;;2.70;99.90;;;;;;5013050;28;20018;-89
2020/12/06 03:25:30;;;;;;;;;;;2.70;99.90;;;;;;5013759;28;19984;-88
2020/12/06 03:28:00;;;;;;;;;;;2.70;99.90;;;;;;5012772;28;19931;-88
2020/12/06 03:30:26;;;;;;;;;;;2.70;99.90;;;;;;5012763;28;20281;-89
2020/12/06 03:32:51;;;;;;;;;;;2.70;99.90;;;;;;5012719;28;19917;-88
2020/12/06 03:35:17;;;;;;;;;;;2.70;99.90;;;;;;5012573;28;19927;-89
2020/12/06 03:37:42;;;;;;;;;;;2.60;99.90;;;;;;5012685;28;19909;-89
2020/12/06 03:40:08;;;;;;;;;;;2.60;99.90;;;;;;5012593;28;20004;-88
2020/12/06 03:42:33;;;;;;;;;;;2.60;99.90;;;;;;5012375;28;19909;-88
2020/12/06 03:45:02;;;;;;;;;;;2.70;99.90;;;;;;5012291;28;20356;-88
2020/12/06 03:47:27;;;;;;;;;;;2.60;99.90;;;;;;5012409;28;19913;-89
2020/12/06 03:49:53;;;;;;;;;;;2.70;99.90;;;;;;5012915;28;19909;-88
2020/12/06 03:52:20;;;;;;;;;;;2.60;99.90;;;;;;5012458;28;19913;-89
2020/12/06 03:54:48;;;;;;;;;;;2.70;99.90;;;;;;5012091;28;19909;-88
2020/12/06 03:57:14;;;;;;;;;;;2.70;99.90;;;;;;5012320;28;20137;-88
2020/12/06 03:59:39;;;;;;;;;;;2.60;99.90;;;;;;5012270;28;20419;-89
2020/12/06 04:02:07;;;;;;;;;;;2.60;99.90;;;;;;5011875;28;20315;-88
2020/12/06 04:04:33;;;;;;;;;;;2.60;99.90;;;;;;5011903;28;20015;-90
2020/12/06 04:07:00;;;;;;;;;;;2.60;99.90;;;;;;5011177;28;20213;-88
2020/12/06 04:09:30;;;;;;;;;;;2.60;99.90;;;;;;5011666;28;20050;-89
2020/12/06 04:11:56;;;;;;;;;;;2.60;99.90;;;;;;5011954;28;19993;-89
2020/12/06 04:14:21;;;;;;;;;;;2.60;99.90;;;;;;5011964;28;20001;-89
2020/12/06 04:16:49;;;;;;;;;;;2.60;99.90;;;;;;5012337;28;20289;-87
2020/12/06 04:19:14;;;;;;;;;;;2.60;99.90;;;;;;5011396;28;20200;-88
2020/12/06 04:21:40;;;;;;;;;;;2.60;99.90;;;;;;5010843;28;19960;-89
2020/12/06 04:24:05;;;;;;;;;;;2.60;99.90;;;;;;5012086;28;19917;-89
2020/12/06 04:26:31;;;;;;;;;;;2.60;99.90;;;;;;5011789;28;19960;-89
2020/12/06 04:28:59;;;;;;;;;;;2.70;99.90;;;;;;5011507;28;19914;-89
2020/12/06 04:31:24;;;;;;;;;;;2.60;99.90;;;;;;5011424;28;19968;-88
2020/12/06 04:33:50;;;;;;;;;;;2.60;99.90;;;;;;5011380;28;19909;-88
2020/12/06 04:36:16;;;;;;;;;;;2.60;99.90;;;;;;5012130;28;19959;-88
2020/12/06 04:38:44;;;;;;;;;;;2.60;99.90;;;;;;5011660;28;19920;-89
2020/12/06 04:41:12;;;;;;;;;;;2.60;99.90;;;;;;5011316;28;20040;-89
2020/12/06 04:43:39;;;;;;;;;;;2.60;99.90;;;;;;5011363;28;19921;-89
2020/12/06 04:46:04;;;;;;;;;;;2.60;99.90;;;;;;5011369;28;19916;-88
2020/12/06 04:48:51;;;;;;;;;;;2.60;99.90;;;;;;5011783;28;19914;-89
2020/12/06 04:51:18;;;;;;;;;;;2.60;99.90;;;;;;5011406;28;19910;-89
2020/12/06 04:53:55;;;;;;;;;;;2.60;99.90;;;;;;5011329;28;19952;-89
2020/12/06 04:56:21;;;;;;;;;;;2.60;99.90;;;;;;5011479;28;19961;-88
2020/12/06 04:58:47;;;;;;;;;;;2.60;99.90;;;;;;5011058;28;20027;-88
2020/12/06 05:01:16;;;;;;;;;;;2.60;99.90;;;;;;5011341;28;20349;-88
2020/12/06 05:03:43;;;;;;;;;;;2.60;99.90;;;;;;5011577;28;20361;-88
2020/12/06 05:06:11;;;;;;;;;;;2.60;99.90;;;;;;5011152;28;19948;-88
2020/12/06 05:08:38;;;;;;;;;;;2.60;99.90;;;;;;5011091;28;19979;-89
2020/12/06 05:11:06;;;;;;;;;;;2.50;99.90;;;;;;5011092;28;19965;-88
2020/12/06 05:13:34;;;;;;;;;;;2.50;99.90;;;;;;5010921;28;20296;-88
2020/12/06 05:16:05;;;;;;;;;;;2.50;99.90;;;;;;5010923;28;19913;-88
2020/12/06 05:18:36;;;;;;;;;;;2.50;99.90;;;;;;5011030;28;19924;-88
2020/12/06 05:21:01;;;;;;;;;;;2.50;99.90;;;;;;5010666;28;19914;-88
2020/12/06 05:23:27;;;;;;;;;;;2.60;99.90;;;;;;5010631;28;19921;-89
2020/12/06 05:25:55;;;;;;;;;;;2.60;99.90;;;;;;5010767;28;19910;-89
2020/12/06 05:28:23;;;;;;;;;;;2.60;99.90;;;;;;5010845;28;19953;-89
2020/12/06 05:30:49;;;;;;;;;;;2.60;99.90;;;;;;5010587;28;19913;-88
2020/12/06 05:33:16;;;;;;;;;;;2.60;99.90;;;;;;5013207;28;19959;-88
2020/12/06 05:35:45;;;;;;;;;;;2.60;99.90;;;;;;5014788;28;19917;-90
2020/12/06 05:38:13;;;;;;;;;;;2.70;99.90;;;;;;5014973;28;19914;-89
2020/12/06 05:40:47;;;;;;;;;;;2.90;99.90;;;;;;5016100;28;19994;-88
2020/12/06 05:43:13;;;;;;;;;;;2.90;99.90;;;;;;5014952;28;19910;-87
2020/12/06 05:45:38;;;;;;;;;;;3.00;99.90;;;;;;5015244;28;19917;-89
2020/12/06 05:48:05;;;;;;;;;;;3.00;99.90;;;;;;5014762;28;19995;-88
2020/12/06 05:50:31;;;;;;;;;;;3.00;99.90;;;;;;5014619;28;19910;-88
2020/12/06 05:52:56;;;;;;;;;;;3.00;99.90;;;;;;5014623;28;19910;-88
2020/12/06 05:55:22;;;;;;;;;;;3.00;99.90;;;;;;5014779;28;19913;-90
2020/12/06 05:57:50;;;;;;;;;;;3.00;99.90;;;;;;5014542;28;19921;-88
2020/12/06 06:00:15;;;;;;;;;;;3.00;99.90;;;;;;5014268;28;19909;-87
2020/12/06 06:02:45;;;;;;;;;;;3.00;99.90;;;;;;5014453;28;19960;-88
2020/12/06 06:05:15;;;;;;;;;;;3.10;99.90;;;;;;5014355;28;19917;-88
2020/12/06 06:07:41;;;;;;;;;;;3.00;99.90;;;;;;5014441;28;20060;-89
2020/12/06 06:10:13;;;;;;;;;;;3.00;99.90;;;;;;5014203;28;19929;-90
2020/12/06 06:12:42;;;;;;;;;;;3.00;99.90;;;;;;5014071;28;20099;-88
2020/12/06 06:15:10;;;;;;;;;;;3.00;99.90;;;;;;5014039;28;19917;-88
2020/12/06 06:17:37;;;;;;;;;;;3.00;99.90;;;;;;5013955;28;19940;-89
2020/12/06 06:20:06;;;;;;;;;;;2.90;99.90;;;;;;5013910;28;19910;-88
2020/12/06 06:22:33;;;;;;;;;;;2.90;99.90;;;;;;5014432;28;19909;-88
2020/12/06 06:25:00;;;;;;;;;;;2.90;99.90;;;;;;5013876;28;19909;-89
2020/12/06 06:27:31;;;;;;;;;;;2.90;99.90;;;;;;5013845;28;19916;-88
2020/12/06 06:29:59;;;;;;;;;;;2.80;99.90;;;;;;5013795;28;20040;-89
2020/12/06 06:32:25;;;;;;;;;;;2.90;99.90;;;;;;5013926;28;20253;-88
2020/12/06 06:34:51;;;;;;;;;;;2.90;99.90;;;;;;5013777;28;19960;-88
2020/12/06 06:37:16;;;;;;;;;;;2.90;99.90;;;;;;5014235;28;19981;-88
2020/12/06 06:39:44;;;;;;;;;;;2.90;99.90;;;;;;5013816;28;19949;-87
2020/12/06 06:42:12;;;;;;;;;;;2.90;99.90;;;;;;5013866;28;19910;-89
2020/12/06 06:44:41;;;;;;;;;;;2.80;99.90;;;;;;5013101;28;19957;-88
2020/12/06 06:47:08;;;;;;;;;;;2.80;99.90;;;;;;5013294;28;20012;-88
2020/12/06 06:49:49;;;;;;;;;;;2.80;99.90;;;;;;5013562;28;20246;-88
2020/12/06 06:52:15;;;;;;;;;;;2.90;99.90;;;;;;5013430;28;19910;-87
2020/12/06 06:54:40;;;;;;;;;;;2.90;99.90;;;;;;5013374;28;19916;-88
2020/12/06 06:57:06;;;;;;;;;;;2.80;99.90;;;;;;5013514;28;20004;-88
2020/12/06 06:59:36;;;;;;;;;;;2.80;99.90;;;;;;5013066;28;20280;-88
2020/12/06 07:02:01;;;;;;;;;;;2.90;99.90;;;;;;5013439;28;20277;-88
2020/12/06 07:04:27;;;;;;;;;;;2.90;99.90;;;;;;5013171;28;19936;-88
2020/12/06 07:06:53;;;;;;;;;;;2.90;99.90;;;;;;5013150;28;20373;-88
2020/12/06 07:09:22;;;;;;;;;;;2.90;99.90;;;;;;5014576;28;19922;-88
2020/12/06 07:11:48;;;;;;;;;;;2.90;99.90;;;;;;5014677;28;19940;-89
2020/12/06 07:14:13;;;;;;;;;;;2.90;99.90;;;;;;5014520;28;19917;-88
2020/12/06 07:16:39;;;;;;;;;;;2.80;99.90;;;;;;5014796;28;19914;-87
2020/12/06 07:19:04;;;;;;;;;;;2.90;99.90;;;;;;5014602;28;19913;-88
2020/12/06 07:21:31;;;;;;;;;;;2.90;99.90;;;;;;5014532;28;19915;-88
2020/12/06 07:23:57;;;;;;;;;;;2.90;99.90;;;;;;5014446;28;19914;-88
2020/12/06 07:26:25;;;;;;;;;;;2.90;99.90;;;;;;5014380;28;19959;-88
2020/12/06 07:28:55;;;;;;;;;;;2.90;99.90;;;;;;5014446;28;19956;-88
2020/12/06 07:31:21;;;;;;;;;;;2.90;99.90;;;;;;5014258;28;20423;-87
2020/12/06 07:33:51;;;;;;;;;;;2.90;99.90;;;;;;5014322;28;19909;-87
2020/12/06 07:36:17;;;;;;;;;;;2.90;99.90;;;;;;5014234;28;19918;-88
2020/12/06 07:38:45;;;;;;;;;;;2.90;99.90;;;;;;5014179;28;19920;-88
2020/12/06 07:41:11;;;;;;;;;;;2.90;99.90;;;;;;5014098;28;19909;-87
2020/12/06 07:43:41;;;;;;;;;;;2.90;99.90;;;;;;5014306;28;20285;-88
2020/12/06 07:46:17;;;;;;;;;;;2.90;99.90;;;;;;5014214;28;19917;-88
2020/12/06 07:48:43;;;;;;;;;;;2.90;99.90;;;;;;5014078;28;19910;-88
2020/12/06 07:51:08;;;;;;;;;;;2.90;99.90;;;;;;5014125;28;19921;-89
2020/12/06 07:53:50;;;;;;;;;;;2.90;99.90;;;;;;5013809;28;19969;-88
2020/12/06 07:56:23;;;;;;;;;;;2.90;99.90;;;;;;5012785;28;20380;-88
2020/12/06 07:58:59;;;;;;;;;;;2.90;99.90;;;;;;5013870;28;20005;-89
2020/12/06 08:01:25;;;;;;;;;;;2.90;99.90;;;;;;5013893;28;19910;-88
2020/12/06 08:03:55;;;;;;;;;;;3.00;99.90;;;;;;5013726;28;20407;-87
2020/12/06 08:06:21;;;;;;;;;;;2.90;99.90;;;;;;5013691;28;19909;-87
2020/12/06 08:08:51;;;;;;;;;;;2.90;99.90;;;;;;5013506;28;19933;-88
2020/12/06 08:11:19;;;;;;;;;;;2.90;99.90;;;;;;5013716;28;19932;-87
2020/12/06 08:13:49;;;;;;;;;;;2.90;99.90;;;;;;5013763;28;19910;-87
2020/12/06 08:16:17;;;;;;;;;;;3.00;99.90;;;;;;5013346;28;19939;-88
2020/12/06 08:18:43;;;;;;;;;;;2.90;99.90;;;;;;5013751;28;19936;-87
2020/12/06 08:21:08;;;;;;;;;;;2.90;99.90;;;;;;5013578;28;20365;-87
2020/12/06 08:23:36;;;;;;;;;;;3.00;99.90;;;;;;5013398;28;19909;-87
2020/12/06 08:26:05;;;;;;;;;;;3.00;99.90;;;;;;5013304;28;19958;-88
2020/12/06 08:28:30;;;;;;;;;;;3.00;99.90;;;;;;5013344;28;19909;-87
2020/12/06 08:31:01;;;;;;;;;;;3.00;99.90;;;;;;5013170;28;19917;-86
2020/12/06 08:33:27;;;;;;;;;;;3.00;99.90;;;;;;5013461;28;19910;-88
2020/12/06 08:35:56;;;;;;;;;;;3.00;99.90;;;;;;5013138;28;19963;-87
2020/12/06 08:38:32;;;;;;;;;;;3.10;99.90;;;;;;5013191;28;20084;-87
2020/12/06 08:41:04;;;;;;;;;;;3.00;99.90;;;;;;5013068;28;19920;-88
2020/12/06 08:43:49;;;;;;;;;;;3.10;99.90;;;;;;5013012;28;19910;-89
2020/12/06 08:46:21;;;;;;;;;;;3.10;99.90;;;;;;5013189;28;19916;-88
2020/12/06 08:48:50;;;;;;;;;;;3.10;99.90;;;;;;5013034;28;19963;-88
2020/12/06 08:51:36;;;;;;;;;;;3.20;99.90;;;;;;5012730;28;19917;-88
2020/12/06 08:54:03;;;;;;;;;;;3.10;99.90;;;;;;5012344;28;20380;-88
2020/12/06 08:56:31;;;;;;;;;;;3.20;99.90;;;;;;5012508;28;19972;-88
2020/12/06 08:59:04;;;;;;;;;;;3.20;99.90;;;;;;5012773;28;19933;-88
2020/12/06 09:01:30;;;;;;;;;;;3.20;99.90;;;;;;5000885;28;19945;-89
2020/12/06 09:03:55;;;;;;;;;;;3.20;99.90;;;;;;5003027;28;19916;-88
2020/12/06 09:06:23;;;;;;;;;;;3.30;99.90;;;;;;5001503;28;19910;-89
2020/12/06 09:08:51;;;;;;;;;;;3.30;99.90;;;;;;5011607;28;19921;-88
2020/12/06 09:11:17;;;;;;;;;;;3.30;99.90;;;;;;5017805;28;20469;-89
2020/12/06 09:13:45;;;;;;;;;;;3.30;99.90;;;;;;5018003;28;19913;-89
2020/12/06 09:16:11;;;;;;;;;;;3.40;99.90;;;;;;5018081;28;20000;-89
2020/12/06 09:18:38;;;;;;;;;;;3.40;99.90;;;;;;5010541;28;19925;-87
2020/12/06 09:21:04;;;;;;;;;;;3.40;99.90;;;;;;5009394;28;19909;-88
2020/12/06 09:23:32;;;;;;;;;;;3.50;99.90;;;;;;5012969;28;20392;-90
2020/12/06 09:26:00;;;;;;;;;;;3.50;99.90;;;;;;5005925;28;19968;-89
2020/12/06 09:28:27;;;;;;;;;;;3.40;99.90;;;;;;5008182;28;19909;-88
2020/12/06 09:30:58;;;;;;;;;;;3.50;99.90;;;;;;5002627;28;20365;-88
2020/12/06 09:33:23;;;;;;;;;;;3.50;99.90;;;;;;5004088;28;19910;-89
2020/12/06 09:35:51;;;;;;;;;;;3.50;99.90;;;;;;5002097;28;19918;-89
2020/12/06 09:38:19;;;;;;;;;;;3.50;99.90;;;;;;5008042;28;19922;-90
2020/12/06 09:40:45;;;;;;;;;;;3.40;99.90;;;;;;5006207;28;20277;-89
2020/12/06 09:43:13;;;;;;;;;;;3.40;99.90;;;;;;5008268;28;19916;-90
2020/12/06 09:45:41;;;;;;;;;;;3.40;99.90;;;;;;5005675;28;19922;-88
2020/12/06 09:48:10;;;;;;;;;;;3.50;99.90;;;;;;5000510;28;20009;-89
2020/12/06 09:50:35;;;;;;;;;;;3.50;99.90;;;;;;5002690;28;19917;-88
2020/12/06 09:53:01;;;;;;;;;;;3.50;99.90;;;;;;4999344;28;19910;-90
2020/12/06 09:55:29;;;;;;;;;;;3.50;99.90;;;;;;5010051;28;19921;-89
2020/12/06 09:57:55;;;;;;;;;;;3.50;99.90;;;;;;5014755;28;19933;-91
2020/12/06 10:00:20;;;;;;;;;;;3.50;99.90;;;;;;5017200;28;19909;-89
2020/12/06 10:02:46;;;;;;;;;;;3.50;99.90;;;;;;5016834;28;20004;-89
2020/12/06 10:05:12;;;;;;;;;;;3.50;99.90;;;;;;5016995;28;20353;-88
2020/12/06 10:07:38;;;;;;;;;;;3.50;99.90;;;;;;5010668;28;19918;-88
2020/12/06 10:10:09;;;;;;;;;;;3.50;99.90;;;;;;5017746;28;19922;-89
2020/12/06 10:12:37;;;;;;;;;;;3.50;99.90;;;;;;5016778;28;19984;-90
2020/12/06 10:15:03;;;;;;;;;;;3.50;99.90;;;;;;5005464;28;19928;-87
2020/12/06 10:17:32;;;;;;;;;;;3.50;99.90;;;;;;5008871;28;20361;-87
2020/12/06 10:19:57;;;;;;;;;;;3.60;99.90;;;;;;5015125;28;20384;-89
2020/12/06 10:22:23;;;;;;;;;;;3.60;99.90;;;;;;5015191;28;19910;-88
2020/12/06 10:24:49;;;;;;;;;;;3.60;99.90;;;;;;5015208;28;19909;-88
2020/12/06 10:27:14;;;;;;;;;;;3.60;99.90;;;;;;5015034;28;19910;-88
2020/12/06 10:29:40;;;;;;;;;;;3.60;99.90;;;;;;5015177;28;19909;-88
2020/12/06 10:32:08;;;;;;;;;;;3.60;99.90;;;;;;5014801;28;19913;-88
2020/12/06 10:34:36;;;;;;;;;;;3.60;99.90;;;;;;5014829;28;19914;-89
2020/12/06 10:37:02;;;;;;;;;;;3.60;99.90;;;;;;5014882;28;19922;-89
2020/12/06 10:39:27;;;;;;;;;;;3.60;99.90;;;;;;5015003;28;19917;-89
2020/12/06 10:41:56;;;;;;;;;;;3.70;99.90;;;;;;5015039;28;19955;-90
2020/12/06 10:44:25;;;;;;;;;;;3.60;99.90;;;;;;5015758;28;20272;-88
2020/12/06 10:46:55;;;;;;;;;;;3.60;99.90;;;;;;5016085;28;19976;-88
2020/12/06 10:49:21;;;;;;;;;;;3.70;99.90;;;;;;5016083;28;19941;-88
2020/12/06 10:51:49;;;;;;;;;;;3.70;99.90;;;;;;5014566;28;20197;-89
2020/12/06 10:54:15;;;;;;;;;;;3.70;99.90;;;;;;5014840;28;19910;-89
2020/12/06 10:56:41;;;;;;;;;;;3.70;99.90;;;;;;5014370;28;19967;-89
2020/12/06 10:59:07;;;;;;;;;;;3.70;99.90;;;;;;5014432;28;20316;-88
2020/12/06 11:01:35;;;;;;;;;;;3.70;99.90;;;;;;5014726;28;19910;-89
2020/12/06 11:04:01;;;;;;;;;;;3.70;99.90;;;;;;5014991;28;20000;-89
2020/12/06 11:06:27;;;;;;;;;;;3.70;99.90;;;;;;5014732;28;20008;-88
2020/12/06 11:08:53;;;;;;;;;;;3.70;99.90;;;;;;5014573;28;19968;-89
2020/12/06 11:11:22;;;;;;;;;;;3.80;99.90;;;;;;5015084;28;19992;-89
2020/12/06 11:13:51;;;;;;;;;;;3.70;99.90;;;;;;5014123;28;19939;-89
2020/12/06 11:16:18;;;;;;;;;;;3.70;99.90;;;;;;5002875;28;20266;-89
2020/12/06 11:18:47;;;;;;;;;;;3.70;99.90;;;;;;5007051;28;20317;-88
2020/12/06 11:21:21;;;;;;;;;;;3.80;99.90;;;;;;5003415;28;19914;-90
2020/12/06 11:23:48;;;;;;;;;;;3.80;99.90;;;;;;5013119;28;19920;-89
2020/12/06 11:26:14;;;;;;;;;;;3.80;99.90;;;;;;5013453;28;19960;-89
2020/12/06 11:28:42;;;;;;;;;;;3.80;99.90;;;;;;5013584;28;19909;-89
2020/12/06 11:31:13;;;;;;;;;;;3.80;99.90;;;;;;5013331;28;20012;-89
2020/12/06 11:33:38;;;;;;;;;;;3.80;99.90;;;;;;5023015;28;20408;-88
2020/12/06 11:36:04;;;;;;;;;;;3.80;99.90;;;;;;4997782;28;19913;-89
2020/12/06 11:38:30;;;;;;;;;;;3.80;99.90;;;;;;5004322;28;19914;-89
2020/12/06 11:40:58;;;;;;;;;;;3.80;99.90;;;;;;5004235;28;20277;-89
2020/12/06 11:43:23;;;;;;;;;;;3.90;99.90;;;;;;4997787;28;19910;-89
2020/12/06 11:45:49;;;;;;;;;;;3.90;99.90;;;;;;4997684;28;20412;-88
2020/12/06 11:48:15;;;;;;;;;;;3.90;99.90;;;;;;5002703;28;19924;-88
2020/12/06 11:50:45;;;;;;;;;;;3.90;99.90;;;;;;5011689;28;19910;-89
2020/12/06 11:53:10;;;;;;;;;;;3.90;99.90;;;;;;5013414;28;19909;-88
2020/12/06 11:55:41;;;;;;;;;;;3.90;99.90;;;;;;5010689;28;20392;-89
2020/12/06 11:58:06;;;;;;;;;;;3.90;99.90;;;;;;5013508;28;19944;-88
2020/12/06 12:00:32;;;;;;;;;;;3.90;99.90;;;;;;5011899;28;19984;-88
2020/12/06 12:02:57;;;;;;;;;;;4.00;99.90;;;;;;5006699;28;19920;-88
2020/12/06 12:05:23;;;;;;;;;;;3.90;99.90;;;;;;5011784;28;19949;-87
2020/12/06 12:07:48;;;;;;;;;;;4.00;99.90;;;;;;5012473;28;19909;-88
2020/12/06 12:10:15;;;;;;;;;;;4.00;99.90;;;;;;5012819;28;20008;-89
2020/12/06 12:12:41;;;;;;;;;;;4.00;99.90;;;;;;5013056;28;19929;-88
2020/12/06 12:15:09;;;;;;;;;;;4.00;99.90;;;;;;5012603;28;19932;-89
2020/12/06 12:17:37;;;;;;;;;;;4.00;99.90;;;;;;5012244;28;20424;-88
2020/12/06 12:20:03;;;;;;;;;;;4.10;99.90;;;;;;5013072;28;20284;-88
2020/12/06 12:22:29;;;;;;;;;;;4.10;99.90;;;;;;5013161;28;19913;-88
2020/12/06 12:24:54;;;;;;;;;;;4.10;99.90;;;;;;5013050;28;19909;-89
2020/12/06 12:27:22;;;;;;;;;;;4.10;99.90;;;;;;5013113;28;19947;-88
2020/12/06 12:29:48;;;;;;;;;;;4.10;99.90;;;;;;5012827;28;19971;-89
2020/12/06 12:32:13;;;;;;;;;;;4.10;99.90;;;;;;5013012;28;20316;-88
2020/12/06 12:34:39;;;;;;;;;;;4.10;99.90;;;;;;5012749;28;19917;-89
2020/12/06 12:37:05;;;;;;;;;;;4.20;99.90;;;;;;5012677;28;19936;-89
2020/12/06 12:39:30;;;;;;;;;;;4.20;99.90;;;;;;5012980;28;19913;-88
2020/12/06 12:41:59;;;;;;;;;;;4.20;99.90;;;;;;5011765;28;20277;-88
2020/12/06 12:44:27;;;;;;;;;;;4.20;99.90;;;;;;5012695;28;20044;-88
2020/12/06 12:47:01;;;;;;;;;;;4.30;99.90;;;;;;5012513;28;19922;-88
2020/12/06 12:49:27;;;;;;;;;;;4.30;99.90;;;;;;5013889;28;19936;-89
2020/12/06 12:51:56;;;;;;;;;;;4.30;99.90;;;;;;5012890;28;20353;-88
2020/12/06 12:54:24;;;;;;;;;;;4.30;99.90;;;;;;5012537;28;19925;-88
2020/12/06 12:56:52;;;;;;;;;;;4.40;99.90;;;;;;5012701;28;19928;-88
2020/12/06 12:59:18;;;;;;;;;;;4.40;99.90;;;;;;5012670;28;19999;-89
2020/12/06 13:01:43;;;;;;;;;;;4.40;99.90;;;;;;5012686;28;19957;-88
2020/12/06 13:04:11;;;;;;;;;;;4.40;99.90;;;;;;5012743;28;19956;-88
2020/12/06 13:06:37;;;;;;;;;;;4.40;99.90;;;;;;5012798;28;19916;-87
2020/12/06 13:09:02;;;;;;;;;;;4.40;99.90;;;;;;5012548;28;19977;-88
2020/12/06 13:11:31;;;;;;;;;;;4.40;99.90;;;;;;5013090;28;20020;-87
2020/12/06 13:14:04;;;;;;;;;;;4.40;99.90;;;;;;5012793;28;19910;-88
2020/12/06 13:16:29;;;;;;;;;;;4.40;99.90;;;;;;5012576;28;20004;-88
2020/12/06 13:18:57;;;;;;;;;;;4.40;99.90;;;;;;5013053;28;20392;-88
2020/12/06 13:21:23;;;;;;;;;;;4.40;99.90;;;;;;5012781;28;19909;-89
2020/12/06 13:23:48;;;;;;;;;;;4.40;99.90;;;;;;5012643;28;20034;-89
2020/12/06 13:26:14;;;;;;;;;;;4.40;99.90;;;;;;5012632;28;19963;-88
2020/12/06 13:28:40;;;;;;;;;;;4.40;99.90;;;;;;5012765;28;19952;-89
2020/12/06 13:31:05;;;;;;;;;;;4.40;99.90;;;;;;5012087;28;19909;-89
2020/12/06 13:33:31;;;;;;;;;;;4.40;99.90;;;;;;5014034;28;20333;-94
2020/12/06 13:35:59;;;;;;;;;;;4.40;99.90;;;;;;5012988;28;20052;-88
2020/12/06 13:38:27;;;;;;;;;;;4.40;99.90;;;;;;5012174;28;19913;-87
2020/12/06 13:40:52;;;;;;;;;;;4.40;99.90;;;;;;5012255;28;19909;-88
2020/12/06 13:43:18;;;;;;;;;;;4.40;99.90;;;;;;5013065;28;19909;-87
2020/12/06 13:45:44;;;;;;;;;;;4.40;99.90;;;;;;5012120;28;20076;-87
2020/12/06 13:48:09;;;;;;;;;;;4.40;99.90;;;;;;5012560;28;19919;-87
2020/12/06 13:50:37;;;;;;;;;;;4.30;99.90;;;;;;5012375;28;19914;-88
2020/12/06 13:53:02;;;;;;;;;;;4.40;99.90;;;;;;5012644;28;19913;-87
2020/12/06 13:55:28;;;;;;;;;;;4.30;99.90;;;;;;5014859;28;19914;-88
2020/12/06 13:57:54;;;;;;;;;;;4.30;99.90;;;;;;5016009;28;19913;-88
2020/12/06 14:00:22;;;;;;;;;;;4.30;99.90;;;;;;5016247;28;19910;-88
2020/12/06 14:02:50;;;;;;;;;;;4.30;99.90;;;;;;5016245;28;19949;-88
2020/12/06 14:05:17;;;;;;;;;;;4.30;99.90;;;;;;5015962;28;19909;-88
2020/12/06 14:07:46;;;;;;;;;;;4.30;99.90;;;;;;5015951;28;19913;-88
2020/12/06 14:10:12;;;;;;;;;;;4.30;99.90;;;;;;5015395;28;19921;-88
2020/12/06 14:12:42;;;;;;;;;;;4.30;99.90;;;;;;5015601;28;19964;-88
2020/12/06 14:15:08;;;;;;;;;;;4.30;99.90;;;;;;5015544;28;19918;-87
2020/12/06 14:17:36;;;;;;;;;;;4.30;99.90;;;;;;5015927;28;19925;-88
2020/12/06 14:20:02;;;;;;;;;;;4.30;99.90;;;;;;5015738;28;19993;-88
2020/12/06 14:22:28;;;;;;;;;;;4.30;99.90;;;;;;5015358;28;19920;-89
2020/12/06 14:24:53;;;;;;;;;;;4.30;99.90;;;;;;5015605;28;19910;-87
2020/12/06 14:27:19;;;;;;;;;;;4.30;99.90;;;;;;5015023;28;20361;-88
2020/12/06 14:29:47;;;;;;;;;;;4.30;99.90;;;;;;5015318;28;19932;-88
2020/12/06 14:32:13;;;;;;;;;;;4.30;99.90;;;;;;5016198;28;19913;-93